createdAt,value
2022-11-06T00:03:13.105Z,101098.13
2022-11-06T00:08:15.891Z,101099.69
2022-11-06T00:13:17.752Z,101086.28
2022-11-06T00:18:19.569Z,101078.00
2022-11-06T00:23:21.242Z,101081.94
2022-11-06T00:28:23.319Z,101075.41
2022-11-06T00:33:25.003Z,101073.53
2022-11-06T00:38:26.697Z,101078.34
2022-11-06T00:43:28.394Z,101066.81
2022-11-06T00:48:30.233Z,101067.69
2022-11-06T00:53:32.054Z,101067.38
2022-11-06T00:58:34.076Z,101069.78
2022-11-06T01:03:36.061Z,101063.91
2022-11-06T01:08:38.343Z,101074.06
2022-11-06T01:13:41.103Z,101058.75
2022-11-06T01:18:44.162Z,101063.22
2022-11-06T01:23:46.847Z,101052.53
2022-11-06T01:28:48.811Z,101053.44
2022-11-06T01:33:51.129Z,101054.28
2022-11-06T01:38:54.750Z,101050.50
2022-11-06T01:44:00.867Z,101046.03
2022-11-06T01:49:03.666Z,101042.59
2022-11-06T01:54:08.430Z,101033.34
2022-11-06T01:59:14.020Z,101026.09
2022-11-06T02:04:23.536Z,101030.91
2022-11-06T02:09:25.876Z,101030.41
2022-11-06T02:14:33.270Z,101032.28
2022-11-06T02:19:53.983Z,101031.81
2022-11-06T02:25:09.618Z,101030.59
2022-11-06T02:30:14.637Z,101017.88
2022-11-06T02:35:19.585Z,101022.84
2022-11-06T02:40:23.434Z,101008.59
2022-11-06T02:45:27.731Z,101003.44
2022-11-06T02:50:39.560Z,101010.13
2022-11-06T02:55:46.236Z,100993.13
2022-11-06T03:00:52.793Z,100982.13
2022-11-06T03:06:10.534Z,100995.88
2022-11-06T03:11:18.805Z,100998.63
2022-11-06T03:16:33.490Z,100990.53
2022-11-06T03:21:42.369Z,100984.34
2022-11-06T03:26:48.770Z,100979.53
2022-11-06T03:32:02.555Z,100975.09
2022-11-06T03:37:13.094Z,100973.72
2022-11-06T03:42:21.115Z,100950.16
2022-11-06T03:47:26.828Z,100942.13
2022-11-06T03:52:34.306Z,100928.88
2022-11-06T03:57:41.516Z,100939.03
2022-11-06T04:02:49.083Z,100934.75
2022-11-06T04:08:14.904Z,100936.09
2022-11-06T04:13:39.719Z,100938.16
2022-11-06T04:18:41.379Z,100925.13
2022-11-06T04:24:26.774Z,100925.13
2022-11-06T04:29:35.549Z,100918.25
2022-11-06T04:34:48.067Z,100913.59
2022-11-06T04:40:16.607Z,100905.03
2022-11-06T04:45:25.711Z,100912.06
2022-11-06T04:50:30.562Z,100912.91
2022-11-06T04:55:32.452Z,100906.56
2022-11-06T05:00:34.345Z,100903.97
2022-11-06T05:05:35.991Z,100888.19
2022-11-06T05:10:37.660Z,100897.13
2022-11-06T05:15:39.685Z,100892.47
2022-11-06T05:20:41.269Z,100882.88
2022-11-06T05:25:43.392Z,100884.06
2022-11-06T05:30:45.556Z,100871.53
2022-11-06T05:35:47.278Z,100867.75
2022-11-06T05:40:48.903Z,100863.63
2022-11-06T05:45:50.697Z,100854.19
2022-11-06T05:50:52.578Z,100858.31
2022-11-06T05:55:54.196Z,100843.69
2022-11-06T06:00:57.893Z,100831.69
2022-11-06T06:05:59.615Z,100830.84
2022-11-06T06:11:05.291Z,100835.66
2022-11-06T06:16:07.173Z,100832.03
2022-11-06T06:21:08.997Z,100829.47
2022-11-06T06:26:10.637Z,100834.09
2022-11-06T06:31:12.248Z,100822.25
2022-11-06T06:36:13.963Z,100824.47
2022-11-06T06:41:17.324Z,100813.13
2022-11-06T06:46:18.993Z,100810.91
2022-11-06T06:51:23.992Z,100811.41
2022-11-06T06:56:26.341Z,100800.09
2022-11-06T07:01:28.106Z,100814.00
2022-11-06T07:06:30.140Z,100808.69
2022-11-06T07:11:32.214Z,100805.94
2022-11-06T07:16:34.059Z,100803.34
2022-11-06T07:21:35.939Z,100813.66
2022-11-06T07:26:37.945Z,100817.44
2022-11-06T07:31:42.536Z,100808.88
2022-11-06T07:36:44.470Z,100803.88
2022-11-06T07:41:46.173Z,100803.38
2022-11-06T07:46:47.811Z,100787.41
2022-11-06T07:51:49.622Z,100777.78
2022-11-06T07:56:51.383Z,100773.84
2022-11-06T08:01:53.105Z,100775.03
2022-11-06T08:06:54.945Z,100785.16
2022-11-06T08:11:56.990Z,100798.06
2022-11-06T08:16:58.673Z,100792.38
2022-11-06T08:22:00.541Z,100793.34
2022-11-06T08:27:03.163Z,100779.97
2022-11-06T08:32:04.984Z,100777.25
2022-11-06T08:37:06.711Z,100770.53
2022-11-06T08:42:08.405Z,100759.66
2022-11-06T08:47:09.980Z,100762.63
2022-11-06T08:52:11.633Z,100766.03
2022-11-06T08:57:13.375Z,100760.53
2022-11-06T09:02:15.675Z,100752.59
2022-11-06T09:07:17.964Z,100756.56
2022-11-06T09:12:19.694Z,100744.03
2022-11-06T09:17:23.810Z,100737.50
2022-11-06T09:22:25.520Z,100727.00
2022-11-06T09:27:27.261Z,100728.53
2022-11-06T09:32:28.892Z,100710.34
2022-11-06T09:37:30.573Z,100706.19
2022-11-06T09:43:02.416Z,100703.91
2022-11-06T09:48:10.193Z,100707.72
2022-11-06T09:53:27.466Z,100696.00
2022-11-06T09:58:37.400Z,100694.75
2022-11-06T10:04:06.827Z,100683.69
2022-11-06T10:09:08.569Z,100680.59
2022-11-06T10:14:22.983Z,100672.63
2022-11-06T10:19:39.486Z,100665.13
2022-11-06T10:24:55.636Z,100653.59
2022-11-06T10:30:08.964Z,100662.03
2022-11-06T10:35:20.811Z,100646.88
2022-11-06T10:40:26.151Z,100644.78
2022-11-06T10:45:29.391Z,100626.88
2022-11-06T10:50:46.782Z,100618.38
2022-11-06T10:56:00.572Z,100621.66
2022-11-06T11:01:06.007Z,100616.47
2022-11-06T11:06:07.905Z,100600.88
2022-11-06T11:11:15.542Z,100597.03
2022-11-06T11:16:18.601Z,100583.94
2022-11-06T11:21:20.982Z,100573.78
2022-11-06T11:26:28.974Z,100573.97
2022-11-06T11:31:33.339Z,100562.50
2022-11-06T11:36:58.263Z,100576.78
2022-11-06T11:42:29.334Z,100563.88
2022-11-06T11:47:31.112Z,100550.03
2022-11-06T11:52:32.907Z,100522.53
2022-11-06T11:57:34.742Z,100534.66
2022-11-06T12:02:42.669Z,100514.66
2022-11-06T12:07:49.775Z,100502.13
2022-11-06T12:12:53.199Z,100505.53
2022-11-06T12:17:59.568Z,100492.66
2022-11-06T12:23:04.797Z,100495.69
2022-11-06T12:28:14.228Z,100484.69
2022-11-06T12:33:59.695Z,100474.53
2022-11-06T12:38:55.515Z,100471.59
2022-11-06T12:43:58.376Z,100466.75
2022-11-06T12:49:26.318Z,100458.50
2022-11-06T12:54:47.735Z,100450.53
2022-11-06T12:59:55.105Z,100443.06
2022-11-06T13:05:16.540Z,100450.06
2022-11-06T13:10:21.351Z,100443.03
2022-11-06T13:15:26.014Z,100446.53
2022-11-06T13:20:40.304Z,100430.63
2022-11-06T13:26:12.180Z,100428.91
2022-11-06T13:31:18.765Z,100422.38
2022-11-06T13:36:22.762Z,100415.34
2022-11-06T13:41:31.180Z,100405.50
2022-11-06T13:47:10.300Z,100405.03
2022-11-06T13:52:27.151Z,100398.19
2022-11-06T13:57:39.618Z,100396.75
2022-11-06T14:03:09.844Z,100384.53
2022-11-06T14:08:38.731Z,100382.91
2022-11-06T14:13:41.135Z,100373.88
2022-11-06T14:18:43.207Z,100372.38
2022-11-06T14:23:44.783Z,100364.84
2022-11-06T14:28:46.628Z,100360.88
2022-11-06T14:33:49.443Z,100360.00
2022-11-06T14:38:52.616Z,100346.00
2022-11-06T14:43:56.539Z,100344.19
2022-11-06T14:49:10.190Z,100344.28
2022-11-06T14:54:22.867Z,100324.00
2022-11-06T14:59:35.258Z,100312.81
2022-11-06T15:04:44.559Z,100318.78
2022-11-06T15:09:47.342Z,100295.44
2022-11-06T15:14:48.919Z,100300.81
2022-11-06T15:20:00.452Z,100279.53
2022-11-06T15:25:17.630Z,100262.03
2022-11-06T15:30:20.926Z,100266.38
2022-11-06T15:35:26.176Z,100267.88
2022-11-06T15:40:30.741Z,100258.00
2022-11-06T15:45:32.699Z,100260.06
2022-11-06T15:50:37.089Z,100242.28
2022-11-06T15:55:45.142Z,100239.91
2022-11-06T16:00:46.993Z,100230.03
2022-11-06T16:05:49.568Z,100236.59
2022-11-06T16:10:52.267Z,100220.03
2022-11-06T16:16:00.583Z,100231.41
2022-11-06T16:21:08.472Z,100222.34
2022-11-06T16:26:14.235Z,100210.84
2022-11-06T16:31:23.502Z,100208.94
2022-11-06T16:36:27.458Z,100205.63
2022-11-06T16:42:02.851Z,100197.06
2022-11-06T16:47:04.566Z,100190.53
2022-11-06T16:52:39.341Z,100182.00
2022-11-06T16:57:59.071Z,100193.63
2022-11-06T17:03:20.500Z,100207.53
2022-11-06T17:08:28.460Z,100206.50
2022-11-06T17:13:35.159Z,100190.91
2022-11-06T17:18:38.984Z,100177.44
2022-11-06T17:23:41.077Z,100179.72
2022-11-06T17:28:42.902Z,100183.03
2022-11-06T17:33:45.541Z,100176.66
2022-11-06T17:38:48.163Z,100188.22
2022-11-06T17:43:50.155Z,100189.19
2022-11-06T17:48:51.815Z,100190.28
2022-11-06T17:53:54.845Z,100186.16
2022-11-06T17:58:56.525Z,100181.47
2022-11-06T18:03:58.489Z,100176.53
2022-11-06T18:09:01.841Z,100180.72
2022-11-06T18:14:03.875Z,100176.09
2022-11-06T18:19:07.880Z,100178.47
2022-11-06T18:24:09.884Z,100175.84
2022-11-06T18:29:13.516Z,100170.31
2022-11-06T18:34:20.665Z,100162.91
2022-11-06T18:39:26.873Z,100167.03
2022-11-06T18:44:30.246Z,100145.88
2022-11-06T18:49:31.962Z,100130.91
2022-11-06T18:54:34.698Z,100135.47
2022-11-06T18:59:36.477Z,100135.56
2022-11-06T19:04:38.550Z,100142.38
2022-11-06T19:09:40.520Z,100130.34
2022-11-06T19:14:42.215Z,100139.47
2022-11-06T19:19:44.127Z,100140.78
2022-11-06T19:24:46.772Z,100152.88
2022-11-06T19:29:48.539Z,100145.53
2022-11-06T19:34:50.299Z,100142.31
2022-11-06T19:39:53.714Z,100146.97
2022-11-06T19:44:58.195Z,100144.59
2022-11-06T19:50:04.727Z,100151.03
2022-11-06T19:55:26.091Z,100153.03
2022-11-06T20:00:29.130Z,100151.44
2022-11-06T20:05:31.140Z,100151.50
2022-11-06T20:10:35.528Z,100143.59
2022-11-06T20:15:39.536Z,100143.19
2022-11-06T20:20:41.331Z,100144.34
2022-11-06T20:25:44.615Z,100148.41
2022-11-06T20:30:47.688Z,100168.59
2022-11-06T20:35:49.621Z,100166.75
2022-11-06T20:40:56.205Z,100168.56
2022-11-06T20:46:03.341Z,100171.13
2022-11-06T20:51:11.743Z,100177.66
2022-11-06T20:56:16.421Z,100177.94
2022-11-06T21:01:20.854Z,100177.53
2022-11-06T21:06:24.418Z,100192.53
2022-11-06T21:11:27.880Z,100203.16
2022-11-06T21:16:36.074Z,100210.16
2022-11-06T21:21:37.827Z,100215.47
2022-11-06T21:26:40.021Z,100209.09
2022-11-06T21:31:48.657Z,100221.41
2022-11-06T21:36:51.252Z,100216.97
2022-11-06T21:41:52.971Z,100218.28
2022-11-06T21:46:54.632Z,100223.78
2022-11-06T21:52:16.422Z,100234.38
2022-11-06T21:57:18.029Z,100234.38
2022-11-06T22:02:19.910Z,100250.84
2022-11-06T22:07:21.651Z,100251.25
2022-11-06T22:12:23.987Z,100248.50
2022-11-06T22:17:25.819Z,100250.41
2022-11-06T22:22:27.482Z,100261.31
2022-11-06T22:27:29.209Z,100260.44
2022-11-06T22:32:30.842Z,100258.16
2022-11-06T22:37:32.513Z,100268.31
2022-11-06T22:42:34.226Z,100268.38
2022-11-06T22:47:36.251Z,100269.63
2022-11-06T22:52:37.890Z,100276.63
2022-11-06T22:57:39.670Z,100285.34
2022-11-06T23:02:41.451Z,100279.97
2022-11-06T23:07:43.180Z,100282.34
2022-11-06T23:12:44.924Z,100276.25
2022-11-06T23:17:46.590Z,100277.78
2022-11-06T23:22:48.310Z,100290.13
2022-11-06T23:27:50.214Z,100298.38
2022-11-06T23:32:52.498Z,100305.59
2022-11-06T23:37:54.206Z,100308.13
2022-11-06T23:42:57.567Z,100315.91
2022-11-06T23:48:02.124Z,100300.53
2022-11-06T23:53:06.352Z,100302.06
2022-11-06T23:58:08.442Z,100316.09
